Time;durP1;ratioP1;P1;durP2;ratioP2;P2;SDS_P1;SDS_P2;PMS_P1;PMS_P2;Temp;Humidity;BMP_temperature;BMP_pressure;BME280_temperature;BME280_humidity;BME280_pressure;Samples;Min_cycle;Max_cycle;Signal;HPM_P1;HPM_P2
2019/04/07 00:00:56;;;;;;;11;8.2;;;;;;;;;;;;;
2019/04/07 00:03:19;;;;;;;13.8;9.6;;;;;;;;;;;;;
2019/04/07 00:05:44;;;;;;;13.4;8.7;;;;;;;;;;;;;
2019/04/07 00:08:09;;;;;;;11;8.4;;;;;;;;;;;;;
2019/04/07 00:10:35;;;;;;;10.7;8.4;;;;;;;;;;;;;
2019/04/07 00:13:00;;;;;;;10.5;7.6;;;;;;;;;;;;;
2019/04/07 00:15:25;;;;;;;11.1;8.2;;;;;;;;;;;;;
2019/04/07 00:17:50;;;;;;;11.8;8.9;;;;;;;;;;;;;
2019/04/07 00:20:15;;;;;;;11.3;8.3;;;;;;;;;;;;;
2019/04/07 00:22:40;;;;;;;11.2;7.8;;;;;;;;;;;;;
2019/04/07 00:25:05;;;;;;;8.2;5.9;;;;;;;;;;;;;
2019/04/07 00:27:30;;;;;;;8;6.5;;;;;;;;;;;;;
2019/04/07 00:29:55;;;;;;;7.9;6.1;;;;;;;;;;;;;
2019/04/07 00:32:20;;;;;;;9.6;6;;;;;;;;;;;;;
2019/04/07 00:34:45;;;;;;;6.8;5.5;;;;;;;;;;;;;
2019/04/07 00:37:10;;;;;;;7.5;5.4;;;;;;;;;;;;;
2019/04/07 00:39:36;;;;;;;6.7;5.6;;;;;;;;;;;;;
2019/04/07 00:42:01;;;;;;;6.3;5.7;;;;;;;;;;;;;
2019/04/07 00:44:26;;;;;;;6.2;5.4;;;;;;;;;;;;;
2019/04/07 00:46:51;;;;;;;8.5;6;;;;;;;;;;;;;
2019/04/07 00:49:16;;;;;;;7.4;6;;;;;;;;;;;;;
2019/04/07 00:51:41;;;;;;;6.7;6;;;;;;;;;;;;;
2019/04/07 00:54:06;;;;;;;8.9;6.4;;;;;;;;;;;;;
2019/04/07 00:56:32;;;;;;;9.5;6.1;;;;;;;;;;;;;
2019/04/07 00:58:56;;;;;;;8.3;5.8;;;;;;;;;;;;;
2019/04/07 01:01:22;;;;;;;8;6;;;;;;;;;;;;;
2019/04/07 01:03:47;;;;;;;7;5.7;;;;;;;;;;;;;
2019/04/07 01:06:12;;;;;;;8;5.6;;;;;;;;;;;;;
2019/04/07 01:08:40;;;;;;;8.6;5.7;;;;;;;;;;;;;
2019/04/07 01:11:02;;;;;;;7.3;5.4;;;;;;;;;;;;;
2019/04/07 01:13:29;;;;;;;5;3.8;;;;;;;;;;;;;
2019/04/07 01:15:55;;;;;;;5.7;4.8;;;;;;;;;;;;;
2019/04/07 01:18:20;;;;;;;6.2;5.3;;;;;;;;;;;;;
2019/04/07 01:20:45;;;;;;;8;4.9;;;;;;;;;;;;;
2019/04/07 01:23:10;;;;;;;6.3;5.4;;;;;;;;;;;;;
2019/04/07 01:25:35;;;;;;;8.1;5.9;;;;;;;;;;;;;
2019/04/07 01:28:00;;;;;;;8.3;6.1;;;;;;;;;;;;;
2019/04/07 01:30:25;;;;;;;10.2;5.4;;;;;;;;;;;;;
2019/04/07 01:32:50;;;;;;;5.6;4.8;;;;;;;;;;;;;
2019/04/07 01:35:16;;;;;;;5.5;4.4;;;;;;;;;;;;;
2019/04/07 01:37:41;;;;;;;6.4;4.4;;;;;;;;;;;;;
2019/04/07 01:40:06;;;;;;;6;5;;;;;;;;;;;;;
2019/04/07 01:42:39;;;;;;;6.9;4.7;;;;;;;;;;;;;
2019/04/07 01:45:14;;;;;;;7.5;4.6;;;;;;;;;;;;;
2019/04/07 01:47:29;;;;;;;8.1;4;;;;;;;;;;;;;
2019/04/07 01:50:02;;;;;;;5.8;4.2;;;;;;;;;;;;;
2019/04/07 01:52:53;;;;;;;5.3;3.9;;;;;;;;;;;;;
2019/04/07 01:54:49;;;;;;;3.8;3.4;;;;;;;;;;;;;
2019/04/07 01:57:57;;;;;;;4.6;3.3;;;;;;;;;;;;;
2019/04/07 02:02:27;;;;;;;5.8;3.7;;;;;;;;;;;;;
2019/04/07 02:07:38;;;;;;;5;3.3;;;;;;;;;;;;;
2019/04/07 02:12:26;;;;;;;4.4;3.6;;;;;;;;;;;;;
2019/04/07 02:14:26;;;;;;;5.1;4;;;;;;;;;;;;;
2019/04/07 02:17:57;;;;;;;5.6;4.4;;;;;;;;;;;;;
2019/04/07 02:19:26;;;;;;;5.1;4.2;;;;;;;;;;;;;
2019/04/07 02:21:31;;;;;;;7.1;4.5;;;;;;;;;;;;;
2019/04/07 02:24:16;;;;;;;5;4.4;;;;;;;;;;;;;
2019/04/07 02:27:09;;;;;;;7.1;4.7;;;;;;;;;;;;;
2019/04/07 02:28:58;;;;;;;6.8;4.4;;;;;;;;;;;;;
2019/04/07 02:31:16;;;;;;;6;4.2;;;;;;;;;;;;;
2019/04/07 02:33:50;;;;;;;6.1;3.9;;;;;;;;;;;;;
2019/04/07 02:39:12;;;;;;;5.3;3.5;;;;;;;;;;;;;
2019/04/07 02:41:37;;;;;;;4.7;3.9;;;;;;;;;;;;;
2019/04/07 02:44:04;;;;;;;4.7;3.7;;;;;;;;;;;;;
2019/04/07 02:49:30;;;;;;;4.1;3.2;;;;;;;;;;;;;
2019/04/07 02:54:16;;;;;;;6.9;4.6;;;;;;;;;;;;;
2019/04/07 02:59:03;;;;;;;6;4;;;;;;;;;;;;;
2019/04/07 03:03:59;;;;;;;5.3;3.4;;;;;;;;;;;;;
2019/04/07 03:06:39;;;;;;;5.7;3.9;;;;;;;;;;;;;
2019/04/07 03:08:54;;;;;;;4.6;3.8;;;;;;;;;;;;;
2019/04/07 03:13:50;;;;;;;4.7;3.2;;;;;;;;;;;;;
2019/04/07 03:16:00;;;;;;;4.5;3.4;;;;;;;;;;;;;
2019/04/07 03:23:28;;;;;;;3.6;3.2;;;;;;;;;;;;;
2019/04/07 03:34:35;;;;;;;6.3;4.7;;;;;;;;;;;;;
2019/04/07 03:36:27;;;;;;;7.1;4.1;;;;;;;;;;;;;
2019/04/07 03:44:39;;;;;;;5.3;3.8;;;;;;;;;;;;;
2019/04/07 03:47:04;;;;;;;4.5;3.5;;;;;;;;;;;;;
2019/04/07 03:49:37;;;;;;;7.9;3.7;;;;;;;;;;;;;
2019/04/07 03:51:54;;;;;;;7.9;3.7;;;;;;;;;;;;;
2019/04/07 03:54:38;;;;;;;6.3;3.5;;;;;;;;;;;;;
2019/04/07 03:56:56;;;;;;;4.6;3.4;;;;;;;;;;;;;
2019/04/07 03:59:19;;;;;;;6.9;3.9;;;;;;;;;;;;;
2019/04/07 04:02:37;;;;;;;5.9;3.9;;;;;;;6.19;76.2168;923.9042;;;;
2019/04/07 04:05:07;;;;;;;7;4.1;;;;;;;6.43;75.29785;923.9565;;;;
2019/04/07 04:08:24;;;;;;;6.3;3.7;;;;;;;6.57;74.41602;923.9504;;;;
2019/04/07 04:10:13;;;;;;;4.2;3.2;;;;;;;6.41;75.00977;923.9668;;;;
2019/04/07 04:12:29;;;;;;;6.2;4.1;;;;;;;6.5;75.25391;923.9914;;;;
2019/04/07 04:14:45;;;;;;;7.3;4.4;;;;;;;6.46;75.60742;924.0759;;;;
2019/04/07 04:17:07;;;;;;;7;3.9;;;;;;;6.5;75.15039;924.0887;;;;
2019/04/07 04:19:29;;;;;;;5;2.9;;;;;;;6.35;75.29395;924.1119;;;;
2019/04/07 04:21:54;;;;;;;8.4;4.8;;;;;;;6.29;75.82617;924.152;;;;
2019/04/07 04:24:19;;;;;;;7.7;4;;;;;;;6.31;75.58008;924.1663;;;;
2019/04/07 04:26:45;;;;;;;8.5;4.4;;;;;;;6.38;75.24219;924.1506;;;;
2019/04/07 04:29:13;;;;;;;6.1;4.3;;;;;;;6.24;75.97656;924.0808;;;;
2019/04/07 04:31:36;;;;;;;9.5;5.8;;;;;;;6.3;75.72754;924.0494;;;;
2019/04/07 04:34:01;;;;;;;10;5.8;;;;;;;6.12;76.47559;924.0549;;;;
2019/04/07 04:36:26;;;;;;;8.9;5.6;;;;;;;6.31;75.78418;924.1078;;;;
2019/04/07 04:38:51;;;;;;;7.8;4.6;;;;;;;6.55;74.66211;924.1046;;;;
2019/04/07 04:41:20;;;;;;;6.3;3.8;;;;;;;6.6;74.61523;924.1584;;;;
2019/04/07 04:43:45;;;;;;;5.6;3.4;;;;;;;6.57;74.63086;924.2335;;;;
2019/04/07 04:46:10;;;;;;;3.4;2.7;;;;;;;6.53;74.73828;924.22;;;;
2019/04/07 04:48:35;;;;;;;4.4;2.9;;;;;;;6.6;74.55664;924.1671;;;;
2019/04/07 04:51:00;;;;;;;3.5;2.7;;;;;;;6.3;75.87402;924.1719;;;;
2019/04/07 04:53:26;;;;;;;3.5;2.9;;;;;;;6.21;76.52344;924.2483;;;;
2019/04/07 04:55:51;;;;;;;4.6;2.9;;;;;;;6.03;77.46289;924.3336;;;;
2019/04/07 04:58:16;;;;;;;6.6;3.6;;;;;;;5.79;78.85449;924.2977;;;;
2019/04/07 05:00:41;;;;;;;5.2;3.1;;;;;;;6.05;77.7041;924.3486;;;;
2019/04/07 05:03:06;;;;;;;4.9;3.5;;;;;;;6.4;76.57031;924.3467;;;;
2019/04/07 05:05:31;;;;;;;4.6;3.2;;;;;;;6.35;76.28906;924.3308;;;;
2019/04/07 05:07:56;;;;;;;6.6;3.9;;;;;;;6.47;75.74512;924.4247;;;;
2019/04/07 05:10:21;;;;;;;4.2;3.4;;;;;;;6.54;75.59961;924.4003;;;;
2019/04/07 05:12:47;;;;;;;4.3;3.2;;;;;;;6.48;75.61035;924.3899;;;;
2019/04/07 05:15:12;;;;;;;5.7;4.2;;;;;;;6.35;76.25586;924.3103;;;;
2019/04/07 05:17:37;;;;;;;6.1;3.4;;;;;;;6.8;74.70605;924.408;;;;
2019/04/07 05:20:02;;;;;;;7.7;5.2;;;;;;;7.08;73.49609;924.3677;;;;
2019/04/07 05:22:27;;;;;;;5;3.6;;;;;;;7.45;72.75586;924.367;;;;
2019/04/07 05:24:52;;;;;;;5.5;3.5;;;;;;;7.38;72.1543;924.3359;;;;
2019/04/07 05:27:18;;;;;;;6;3.1;;;;;;;7.52;72.0752;924.3939;;;;
2019/04/07 05:29:43;;;;;;;4.6;2.6;;;;;;;7.36;72.33301;924.3209;;;;
2019/04/07 05:32:08;;;;;;;3.4;2.9;;;;;;;6.93;74.25293;924.391;;;;
2019/04/07 05:34:35;;;;;;;5.1;2.9;;;;;;;6.74;75.41895;924.4649;;;;
2019/04/07 05:36:59;;;;;;;4.5;3;;;;;;;7.06;74.44434;924.4919;;;;
2019/04/07 05:39:24;;;;;;;3.3;2.9;;;;;;;7.16;73.70215;924.5069;;;;
2019/04/07 05:41:49;;;;;;;3.3;2.9;;;;;;;7.22;73.22656;924.4288;;;;
2019/04/07 05:44:17;;;;;;;6;3;;;;;;;7.25;73.28906;924.4675;;;;
2019/04/07 05:46:43;;;;;;;5.1;2.9;;;;;;;7.3;73.16113;924.5213;;;;
2019/04/07 05:49:08;;;;;;;4.6;2.9;;;;;;;7.57;72.95898;924.5609;;;;
2019/04/07 05:51:32;;;;;;;3.3;2.6;;;;;;;8.05;71.19922;924.5661;;;;
2019/04/07 05:53:59;;;;;;;4.8;2.8;;;;;;;8.58;68.67188;924.5645;;;;
2019/04/07 05:56:24;;;;;;;3.6;2.7;;;;;;;8.83;66.99512;924.5375;;;;
2019/04/07 05:58:48;;;;;;;3.8;2.7;;;;;;;8.91;66.79297;924.5282;;;;
2019/04/07 06:01:13;;;;;;;3.9;2.5;;;;;;;9.25;65.52539;924.5628;;;;
2019/04/07 06:03:39;;;;;;;4.7;3;;;;;;;9.57;65.41406;924.5651;;;;
2019/04/07 06:06:04;;;;;;;4.9;2.7;;;;;;;9.88;64.20605;924.6326;;;;
2019/04/07 06:08:29;;;;;;;4.9;2.6;;;;;;;9.72;64.47949;924.6761;;;;
2019/04/07 06:10:57;;;;;;;4;2.8;;;;;;;9.29;66.03125;924.7324;;;;
2019/04/07 06:13:19;;;;;;;4.5;2.7;;;;;;;9.79;65.08301;924.7358;;;;
2019/04/07 06:15:45;;;;;;;2.9;2.5;;;;;;;9.87;64.67188;924.7147;;;;
2019/04/07 06:18:10;;;;;;;2.8;2.5;;;;;;;9.48;66.13965;924.7963;;;;
2019/04/07 06:20:35;;;;;;;3;2.5;;;;;;;9.8;64.79785;924.7183;;;;
2019/04/07 06:23:00;;;;;;;5.5;2.6;;;;;;;9.99;64.04102;924.6625;;;;
2019/04/07 06:25:25;;;;;;;5.9;2.6;;;;;;;10.35;62.9873;924.7238;;;;
2019/04/07 06:27:53;;;;;;;2.9;2.5;;;;;;;10.34;61.78711;924.7453;;;;
2019/04/07 06:30:16;;;;;;;6;2.5;;;;;;;10.23;62.4209;924.6479;;;;
2019/04/07 06:32:40;;;;;;;5;3.2;;;;;;;9.86;63.09863;924.6431;;;;
2019/04/07 06:35:05;;;;;;;6.6;3.1;;;;;;;9.8;63.53223;924.6077;;;;
2019/04/07 06:37:31;;;;;;;5.6;2.7;;;;;;;9.86;62.97266;924.6472;;;;
2019/04/07 06:39:56;;;;;;;4.8;2.5;;;;;;;10.24;62.94727;924.7028;;;;
2019/04/07 06:42:22;;;;;;;4.3;2.8;;;;;;;9.99;64.76074;924.6831;;;;
2019/04/07 06:44:47;;;;;;;3;2.4;;;;;;;10.46;62.37402;924.7029;;;;
2019/04/07 06:47:27;;;;;;;4.8;2.7;;;;;;;10.2;62.01758;924.7067;;;;
2019/04/07 06:52:23;;;;;;;15.3;4.1;;;;;;;10.09;61.4209;924.7444;;;;
2019/04/07 06:54:54;;;;;;;2.9;2.4;;;;;;;10;60.29004;924.7753;;;;
2019/04/07 07:11:22;;;;;;;6.6;3.2;;;;;;;11.3;55.0957;924.6;;;;
2019/04/07 07:13:58;;;;;;;7;2.6;;;;;;;12;53.19238;924.5925;;;;
2019/04/07 07:16:13;;;;;;;4.4;2.2;;;;;;;13.25;49.23145;924.5875;;;;
2019/04/07 07:22:25;;;;;;;3.2;1.8;;;;;;;14.42;45.50488;924.6247;;;;
2019/04/07 07:24:33;;;;;;;4.2;2.2;;;;;;;15.72;43.58398;924.5972;;;;
2019/04/07 07:26:58;;;;;;;5;2.1;;;;;;;15.74;40.8125;924.6197;;;;
2019/04/07 07:29:23;;;;;;;3.8;2.1;;;;;;;15.53;41.08105;924.6443;;;;
2019/04/07 07:31:48;;;;;;;4.1;2.6;;;;;;;15.7;41.57031;924.5885;;;;
2019/04/07 07:34:13;;;;;;;3;2.2;;;;;;;15.64;43.7832;924.5998;;;;
2019/04/07 07:36:38;;;;;;;3.3;2.1;;;;;;;16.88;41.46191;924.5913;;;;
2019/04/07 07:39:04;;;;;;;3.2;1.6;;;;;;;17.66;39.21582;924.6044;;;;
2019/04/07 07:41:31;;;;;;;3.5;1.5;;;;;;;18.32;35.48535;924.6088;;;;
2019/04/07 07:43:54;;;;;;;2.5;1.6;;;;;;;17.34;40.06738;924.6462;;;;
2019/04/07 07:46:19;;;;;;;2.1;1.5;;;;;;;17.55;37.08203;924.7059;;;;
2019/04/07 07:49:02;;;;;;;2.2;1.5;;;;;;;17.17;36.81836;924.7087;;;;
2019/04/07 07:51:27;;;;;;;2;1.3;;;;;;;16.98;37.39355;924.6624;;;;
2019/04/07 07:53:52;;;;;;;2.1;1.2;;;;;;;16.24;38.10547;924.6843;;;;
2019/04/07 07:56:18;;;;;;;1.8;1.3;;;;;;;15.85;39.88672;924.6655;;;;
2019/04/07 07:58:43;;;;;;;2.6;1.4;;;;;;;17.27;38.58984;924.6987;;;;
2019/04/07 08:01:08;;;;;;;1.7;1.3;;;;;;;17.17;37.99023;924.6869;;;;
2019/04/07 08:03:33;;;;;;;1.9;1.4;;;;;;;17.37;37.77441;924.6677;;;;
2019/04/07 08:05:58;;;;;;;3.6;1.8;;;;;;;16.66;41.55859;924.7074;;;;
2019/04/07 08:08:23;;;;;;;3.8;1.9;;;;;;;17.17;42.60352;924.7266;;;;
2019/04/07 08:10:48;;;;;;;3.5;2.1;;;;;;;18.15;39.21191;924.7452;;;;
2019/04/07 08:13:14;;;;;;;2.8;2.1;;;;;;;17.93;40.2959;924.7118;;;;
2019/04/07 08:15:39;;;;;;;2.1;1.9;;;;;;;17.79;39.40137;924.7068;;;;
2019/04/07 08:18:04;;;;;;;2.4;1.9;;;;;;;18.13;38.69922;924.7733;;;;
2019/04/07 08:20:30;;;;;;;2.8;1.8;;;;;;;19.42;35.50391;924.6642;;;;
2019/04/07 08:22:55;;;;;;;2.9;1.7;;;;;;;20.89;32.3252;924.525;;;;
2019/04/07 08:25:20;;;;;;;2.1;1.5;;;;;;;22.21;29.56055;924.7;;;;
2019/04/07 08:27:45;;;;;;;2.6;1.3;;;;;;;23.28;27.69238;924.754;;;;
2019/04/07 08:30:12;;;;;;;2.4;1.2;;;;;;;23.16;27.48535;924.7559;;;;
2019/04/07 08:32:35;;;;;;;1.6;1.2;;;;;;;24.15;26.14453;924.7252;;;;
2019/04/07 08:35:00;;;;;;;1;0.9;;;;;;;24.3;24.5752;924.6957;;;;
2019/04/07 08:37:25;;;;;;;1.2;1;;;;;;;25.78;22.8125;924.7042;;;;
2019/04/07 08:39:50;;;;;;;1;0.9;;;;;;;26.2;21.36719;924.6858;;;;
2019/04/07 08:42:15;;;;;;;1.3;1;;;;;;;24.68;25.31445;924.7008;;;;
2019/04/07 08:44:41;;;;;;;1.5;0.9;;;;;;;26.12;22.87695;924.6669;;;;
2019/04/07 08:47:06;;;;;;;1.2;0.9;;;;;;;23.48;25.78809;924.6378;;;;
2019/04/07 08:49:31;;;;;;;1.3;1.1;;;;;;;24.37;25.10938;924.7308;;;;
2019/04/07 08:51:56;;;;;;;2.3;1.3;;;;;;;23.72;25.00195;924.6555;;;;
2019/04/07 08:54:21;;;;;;;3;1.6;;;;;;;23.45;26.64453;924.7339;;;;
2019/04/07 08:56:46;;;;;;;2.1;1.9;;;;;;;24.22;25.39453;924.5963;;;;
2019/04/07 08:59:11;;;;;;;2.4;2.1;;;;;;;22.27;29.23633;924.7332;;;;
2019/04/07 09:01:36;;;;;;;3.5;2.6;;;;;;;22.2;28.24707;924.7453;;;;
2019/04/07 09:04:01;;;;;;;4.8;2.6;;;;;;;23.53;26.81348;924.6781;;;;
2019/04/07 09:06:26;;;;;;;4.1;2.9;;;;;;;22.85;28.16992;924.683;;;;
2019/04/07 09:08:52;;;;;;;3.5;3.2;;;;;;;21.52;29.76074;924.6843;;;;
2019/04/07 09:11:20;;;;;;;3.8;3;;;;;;;23.25;28.14844;924.7292;;;;
2019/04/07 09:13:50;;;;;;;3.6;3.2;;;;;;;20.59;31.45117;924.671;;;;
2019/04/07 09:16:25;;;;;;;3.6;3;;;;;;;22.28;28.61523;924.632;;;;
2019/04/07 09:19:04;;;;;;;3.7;3.1;;;;;;;22.03;28.89258;924.6297;;;;
2019/04/07 09:23:35;;;;;;;4.7;4.2;;;;;;;20.31;31.60547;924.62;;;;
2019/04/07 09:28:25;;;;;;;5.8;5;;;;;;;21.77;29.57813;924.6362;;;;
2019/04/07 09:37:39;;;;;;;5.9;5.1;;;;;;;20.79;32.82031;924.6141;;;;
2019/04/07 09:40:14;;;;;;;8;5.9;;;;;;;21.78;30.58691;924.6;;;;
2019/04/07 09:42:36;;;;;;;7.1;5.8;;;;;;;22.25;31.47461;924.6292;;;;
2019/04/07 09:45:09;;;;;;;10.3;8.4;;;;;;;21.43;33.78027;924.6096;;;;
2019/04/07 09:47:24;;;;;;;9.2;8;;;;;;;22.15;32.65137;924.6141;;;;
2019/04/07 09:52:44;;;;;;;12.4;8.5;;;;;;;21.85;33.97656;924.5413;;;;
2019/04/07 09:57:18;;;;;;;13.4;10;;;;;;;21.44;33.50098;924.4814;;;;
2019/04/07 09:59:32;;;;;;;13.3;11.5;;;;;;;21.07;34.18652;924.5053;;;;
2019/04/07 10:02:05;;;;;;;15.8;10.7;;;;;;;21.13;34.99805;924.5356;;;;
2019/04/07 10:04:31;;;;;;;16;12;;;;;;;21.45;32.50684;924.5022;;;;
2019/04/07 10:06:41;;;;;;;15.5;13;;;;;;;22.56;31.3916;924.4691;;;;
2019/04/07 10:11:33;;;;;;;16.3;13.7;;;;;;;22.56;30.78125;924.621;;;;
2019/04/07 10:20:04;;;;;;;18.4;13.7;;;;;;;20.19;34.8418;924.4177;;;;
2019/04/07 10:22:35;;;;;;;17.3;12.8;;;;;;;21.09;33.58008;924.4239;;;;
2019/04/07 10:31:05;;;;;;;17.7;14.4;;;;;;;20.83;34.97461;924.479;;;;
2019/04/07 10:34:50;;;;;;;16.7;13.2;;;;;;;21.3;33.88867;924.4305;;;;
2019/04/07 10:37:35;;;;;;;16.5;11.8;;;;;;;21.2;33.19043;924.39;;;;
2019/04/07 10:44:55;;;;;;;20.4;16.7;;;;;;;20.94;35.46191;924.2925;;;;
2019/04/07 10:47:11;;;;;;;22.1;16.5;;;;;;;21.27;34.59961;924.3706;;;;
2019/04/07 10:49:42;;;;;;;21.9;17.4;;;;;;;22.48;31.83105;924.4739;;;;
2019/04/07 10:52:03;;;;;;;18.9;15.3;;;;;;;23.86;29.10547;924.384;;;;
2019/04/07 10:54:47;;;;;;;23.5;17.4;;;;;;;23.88;30.17773;924.3164;;;;
2019/04/07 11:01:48;;;;;;;22;16.5;;;;;;;23.04;30.82617;924.2748;;;;
2019/04/07 11:04:09;;;;;;;19.5;16.9;;;;;;;22.78;30.90137;924.2523;;;;
2019/04/07 11:06:52;;;;;;;20.8;15.5;;;;;;;21.71;33.00586;924.2481;;;;
2019/04/07 11:09:10;;;;;;;20.8;17.2;;;;;;;22.07;32.11914;924.2386;;;;
2019/04/07 11:17:14;;;;;;;18.8;15.6;;;;;;;22.53;31.27148;924.1808;;;;
2019/04/07 11:19:39;;;;;;;20.3;16.1;;;;;;;23.43;29.42969;924.2177;;;;
2019/04/07 11:26:49;;;;;;;18.7;15.4;;;;;;;23.56;29.43848;924.0969;;;;
2019/04/07 11:29:44;;;;;;;22;16.3;;;;;;;24.62;26.93848;924.0859;;;;
2019/04/07 11:31:40;;;;;;;19.5;14.8;;;;;;;23.93;28.66309;924.1291;;;;
2019/04/07 11:34:38;;;;;;;19.3;14.8;;;;;;;24.63;27.375;924.0624;;;;
2019/04/07 11:36:29;;;;;;;17.6;14.4;;;;;;;25.06;25.78516;924.0695;;;;
2019/04/07 11:39:00;;;;;;;16.8;14.3;;;;;;;22.59;29.37402;924.1278;;;;
2019/04/07 11:51:15;;;;;;;16;13.1;;;;;;;25.41;25.72266;924.0078;;;;
2019/04/07 11:53:20;;;;;;;17.7;14.8;;;;;;;24.18;26.74707;923.9742;;;;
2019/04/07 11:55:28;;;;;;;18.1;14.5;;;;;;;23.36;29.26074;924.0302;;;;
2019/04/07 11:58:05;;;;;;;19;15.1;;;;;;;24.02;28.26758;924.0666;;;;
2019/04/07 12:03:02;;;;;;;20.6;16.5;;;;;;;23.87;28.87012;924.0016;;;;
2019/04/07 12:05:09;;;;;;;21.2;17.4;;;;;;;23.39;29.93359;924.0731;;;;
2019/04/07 12:10:02;;;;;;;18.1;15.2;;;;;;;25.75;25.18652;924.0703;;;;
2019/04/07 12:12:31;;;;;;;23.5;16.9;;;;;;;24.49;26.28223;924.0694;;;;
2019/04/07 12:14:52;;;;;;;19;15.6;;;;;;;25.51;26.24805;924.1079;;;;
2019/04/07 12:17:20;;;;;;;21.1;15.7;;;;;;;25.34;25.51758;924.0683;;;;
2019/04/07 12:29:16;;;;;;;24;16;;;;;;;23.84;27.53906;924.0836;;;;
2019/04/07 12:31:22;;;;;;;33.4;19.1;;;;;;;23.58;30.28613;924.0673;;;;
2019/04/07 12:33:44;;;;;;;23.4;17.9;;;;;;;23.48;29.73926;924.1437;;;;
2019/04/07 12:38:48;;;;;;;22.5;17.9;;;;;;;22.9;30.24023;924.0208;;;;
2019/04/07 12:41:05;;;;;;;23.7;18.9;;;;;;;23.41;30.33398;924.0563;;;;
2019/04/07 12:46:11;;;;;;;20.7;16.7;;;;;;;22.76;29.80859;924.0912;;;;
2019/04/07 12:48:37;;;;;;;21.8;17;;;;;;;22.8;30.41016;924.0706;;;;
2019/04/07 12:50:48;;;;;;;20.8;17.1;;;;;;;21.96;32.05176;924.1089;;;;
2019/04/07 12:53:17;;;;;;;19.7;16.9;;;;;;;21.08;33.16992;924.1194;;;;
2019/04/07 12:57:58;;;;;;;22.5;17.7;;;;;;;18.87;37.41504;924.0803;;;;
2019/04/07 13:01:08;;;;;;;21.1;16.9;;;;;;;19.47;36.23047;924.0463;;;;
2019/04/07 13:02:52;;;;;;;21.7;16.9;;;;;;;18.91;38.74512;924.1172;;;;
2019/04/07 13:05:17;;;;;;;20.9;16.5;;;;;;;19.32;35.91504;924.1108;;;;
2019/04/07 13:07:48;;;;;;;22.1;17.7;;;;;;;18.77;37.63867;924.0602;;;;
2019/04/07 13:10:09;;;;;;;20.6;16.6;;;;;;;18.34;37.59082;924.0934;;;;
2019/04/07 13:14:59;;;;;;;25;17.6;;;;;;;17.61;41.14941;924.0323;;;;
2019/04/07 13:17:26;;;;;;;22.5;17.1;;;;;;;17.63;39.88574;924.1631;;;;
2019/04/07 13:19:50;;;;;;;23.8;17.9;;;;;;;17.31;40.51758;924.0881;;;;
2019/04/07 13:22:21;;;;;;;35.8;17.2;;;;;;;16.94;41.2373;924.072;;;;
2019/04/07 13:27:12;;;;;;;18.5;14.9;;;;;;;18.22;37.24414;924.0511;;;;
2019/04/07 13:29:41;;;;;;;22.3;17;;;;;;;18.01;38.99121;924.1722;;;;
2019/04/07 13:37:57;;;;;;;23.4;17.9;;;;;;;17.09;42.14355;924.1713;;;;
2019/04/07 13:43:08;;;;;;;22.7;17.9;;;;;;;17.26;42.7168;924.2464;;;;
2019/04/07 13:46:26;;;;;;;24.8;18.8;;;;;;;17.19;42.34961;924.1995;;;;
2019/04/07 13:47:47;;;;;;;26.7;19.2;;;;;;;17.03;42.05664;924.2186;;;;
2019/04/07 14:05:03;;;;;;;23;17.9;;;;;;;17.52;42.76465;924.2736;;;;
2019/04/07 14:09:42;;;;;;;22.9;17.3;;;;;;;17.55;42.10645;924.2899;;;;
2019/04/07 14:17:06;;;;;;;22.7;18.2;;;;;;;17.83;42.85254;924.4686;;;;
2019/04/07 14:19:19;;;;;;;22.8;17.4;;;;;;;17.86;41.43945;924.5297;;;;
2019/04/07 14:21:51;;;;;;;24.2;17.9;;;;;;;17.47;43.1543;924.5287;;;;
2019/04/07 14:29:50;;;;;;;25.5;20.3;;;;;;;16.48;45.77637;924.5486;;;;
2019/04/07 14:31:51;;;;;;;27;19.7;;;;;;;16.63;45.39844;924.5196;;;;
2019/04/07 14:34:09;;;;;;;27.2;19.7;;;;;;;16.57;45.02246;924.604;;;;
2019/04/07 14:36:39;;;;;;;28.4;20.4;;;;;;;16.6;46.04492;924.6164;;;;
2019/04/07 14:39:05;;;;;;;26.6;20.1;;;;;;;16.36;47.37402;924.693;;;;
2019/04/07 14:46:39;;;;;;;24.6;19.1;;;;;;;16.51;45.87305;924.7115;;;;
2019/04/07 14:49:05;;;;;;;24.1;19.2;;;;;;;16.46;47.31543;924.7397;;;;
2019/04/07 14:51:32;;;;;;;24.8;19.2;;;;;;;16.4;47.26172;924.653;;;;
2019/04/07 14:54:04;;;;;;;25.6;19.8;;;;;;;16.08;48.51172;924.7576;;;;
2019/04/07 14:56:20;;;;;;;24.3;19.4;;;;;;;16.13;49.32617;924.8027;;;;
2019/04/07 15:01:28;;;;;;;23.9;19.1;;;;;;;16.86;47.60156;924.8122;;;;
2019/04/07 15:03:27;;;;;;;22.8;18.9;;;;;;;17.08;46.69727;924.8425;;;;
2019/04/07 15:05:52;;;;;;;24.6;19.1;;;;;;;17.4;45.46777;924.8563;;;;
2019/04/07 15:08:33;;;;;;;23.6;18.6;;;;;;;17.14;45.42773;924.8338;;;;
2019/04/07 15:10:50;;;;;;;21;18;;;;;;;17.32;44.39258;924.8416;;;;
2019/04/07 15:13:11;;;;;;;21.8;18.1;;;;;;;16.92;46.125;924.8253;;;;
2019/04/07 15:15:32;;;;;;;22;17.9;;;;;;;17.21;45.15723;924.9398;;;;
2019/04/07 15:17:59;;;;;;;21.7;17.7;;;;;;;17.07;45.94336;924.908;;;;
2019/04/07 15:20:23;;;;;;;23.9;18.3;;;;;;;16.87;46.64063;924.9102;;;;
2019/04/07 15:23:22;;;;;;;21.9;17.2;;;;;;;16.94;46.06836;924.8578;;;;
2019/04/07 15:26:33;;;;;;;22.3;18.1;;;;;;;16.93;46.17188;924.8678;;;;
2019/04/07 15:29:43;;;;;;;21.2;17.9;;;;;;;16.26;47.92871;924.8917;;;;
2019/04/07 15:32:08;;;;;;;22.7;17.5;;;;;;;16.07;48.27832;924.9307;;;;
2019/04/07 15:34:34;;;;;;;21.9;18.7;;;;;;;16.09;48.4541;925.0096;;;;
2019/04/07 15:36:59;;;;;;;23.2;17.6;;;;;;;15.93;48.96875;924.9238;;;;
2019/04/07 15:39:24;;;;;;;22.2;18.4;;;;;;;15.95;49.29395;924.9551;;;;
2019/04/07 15:41:49;;;;;;;23.6;18.1;;;;;;;16;50.53711;924.9913;;;;
2019/04/07 15:44:14;;;;;;;25.3;18.5;;;;;;;15.58;54.56445;925.0914;;;;
2019/04/07 15:46:39;;;;;;;24.4;19.1;;;;;;;15.86;54.10352;925.1436;;;;
2019/04/07 15:49:04;;;;;;;23.3;18.9;;;;;;;15.75;54.21777;925.1362;;;;
2019/04/07 15:51:30;;;;;;;23.4;18.6;;;;;;;15.72;54.2373;925.1789;;;;
2019/04/07 15:53:55;;;;;;;21.9;18.2;;;;;;;15.75;53.5127;925.2311;;;;
2019/04/07 15:56:20;;;;;;;26.7;19.4;;;;;;;15.6;56.56641;925.3108;;;;
2019/04/07 15:59:48;;;;;;;29.2;21.6;;;;;;;15.06;64.56055;925.3444;;;;
2019/04/07 16:02:59;;;;;;;30.8;19.8;;;;;;;14.41;69.77539;925.3567;;;;
2019/04/07 16:06:09;;;;;;;26.2;19.2;;;;;;;14;70.73535;925.332;;;;
2019/04/07 16:09:20;;;;;;;29.2;21.2;;;;;;;13.49;71.68555;925.397;;;;
2019/04/07 16:12:30;;;;;;;30.8;23.8;;;;;;;13.58;70.27539;925.4503;;;;
2019/04/07 16:15:43;;;;;;;36.5;26.9;;;;;;;13.55;72.59473;925.4444;;;;
2019/04/07 16:18:53;;;;;;;28.6;22.6;;;;;;;13.55;70.60449;925.4965;;;;
2019/04/07 16:22:04;;;;;;;30.2;22.9;;;;;;;13.51;71.4834;925.5053;;;;
2019/04/07 16:25:15;;;;;;;31.8;24.4;;;;;;;13.57;71.04395;925.5616;;;;
2019/04/07 16:28:25;;;;;;;32.9;24.9;;;;;;;13.06;72.41895;925.5535;;;;
2019/04/07 16:30:50;;;;;;;33.6;25.3;;;;;;;13.31;71.04688;925.5734;;;;
2019/04/07 16:33:15;;;;;;;28.3;22.8;;;;;;;13.08;69.9082;925.6696;;;;
2019/04/07 16:35:40;;;;;;;24.7;20;;;;;;;13.06;70.47949;925.6036;;;;
2019/04/07 16:38:06;;;;;;;27;21.6;;;;;;;13.19;69.43262;925.7155;;;;
2019/04/07 16:40:31;;;;;;;26.4;20.6;;;;;;;13.32;68.77344;925.7004;;;;
2019/04/07 16:42:56;;;;;;;23.9;18.8;;;;;;;12.8;69.97754;925.7042;;;;
2019/04/07 16:45:21;;;;;;;22.7;17.6;;;;;;;12.88;71.55176;925.7708;;;;
2019/04/07 16:47:47;;;;;;;20.9;16;;;;;;;12.85;70.83594;925.7794;;;;
2019/04/07 16:50:12;;;;;;;24.1;17.9;;;;;;;13.01;70.18359;925.8873;;;;
2019/04/07 16:52:37;;;;;;;24.8;19.4;;;;;;;12.7;72.10742;925.9258;;;;
2019/04/07 16:56:33;;;;;;;26.6;20.6;;;;;;;12.56;71.00488;925.9169;;;;
2019/04/07 16:59:46;;;;;;;29.2;23.1;;;;;;;12.94;68.87598;926.0699;;;;
2019/04/07 17:02:57;;;;;;;24.6;18.9;;;;;;;12.48;71.89941;926.0284;;;;
2019/04/07 17:06:08;;;;;;;32.1;23.9;;;;;;;12.75;69.0166;926.0342;;;;
2019/04/07 17:09:18;;;;;;;32.1;24.6;;;;;;;12.76;68.3418;926.0412;;;;
2019/04/07 17:11:51;;;;;;;31.3;25.3;;;;;;;12.66;71.11328;926.0287;;;;
2019/04/07 17:14:17;;;;;;;31.5;24.9;;;;;;;12.16;73.2666;926.0285;;;;
2019/04/07 17:16:42;;;;;;;34.8;26.9;;;;;;;12.54;71.73633;926.0514;;;;
2019/04/07 17:19:07;;;;;;;34.8;28.1;;;;;;;12.74;71.26465;926.0952;;;;
2019/04/07 17:21:34;;;;;;;39.8;29.9;;;;;;;12.98;69.68555;926.1124;;;;
2019/04/07 17:23:59;;;;;;;40;32.6;;;;;;;12.73;71.63184;926.1639;;;;
2019/04/07 17:26:24;;;;;;;43.1;34.1;;;;;;;12.57;72.80762;926.2736;;;;
2019/04/07 17:28:50;;;;;;;42.7;34.2;;;;;;;12.71;72.92383;926.3967;;;;
2019/04/07 17:31:15;;;;;;;43.9;34;;;;;;;12.58;72.75293;926.3613;;;;
2019/04/07 17:33:40;;;;;;;46.9;37.2;;;;;;;12.39;74.47461;926.4785;;;;
2019/04/07 17:36:05;;;;;;;43.7;35.3;;;;;;;12.08;74.8125;926.5317;;;;
2019/04/07 17:40:05;;;;;;;39.4;28.9;;;;;;;12.05;73.64941;926.5609;;;;
2019/04/07 17:46:36;;;;;;;37;28.3;;;;;;;12.21;72.8291;926.6486;;;;
2019/04/07 17:56:50;;;;;;;27.1;22.1;;;;;;;11.59;73.26367;926.7289;;;;
2019/04/07 18:12:52;;;;;;;28.2;22.7;;;;;;;11.52;75.51563;926.9763;;;;
2019/04/07 18:25:45;;;;;;;23.7;18.3;;;;;;;10.96;77.51172;927.2223;;;;
2019/04/07 18:29:01;;;;;;;24.1;19.7;;;;;;;11.02;76.77832;927.2714;;;;
2019/04/07 18:38:26;;;;;;;23;19.1;;;;;;;10.61;77.79102;927.5333;;;;
2019/04/07 18:41:56;;;;;;;23.8;18.7;;;;;;;10.35;78.89648;927.4727;;;;
2019/04/07 18:45:58;;;;;;;25.6;20.3;;;;;;;10.71;79.15625;927.4839;;;;
2019/04/07 18:49:34;;;;;;;27.4;21.1;;;;;;;10.88;78.74121;927.4484;;;;
2019/04/07 18:51:25;;;;;;;29.8;22.9;;;;;;;10.8;77.57227;927.4911;;;;
2019/04/07 19:04:22;;;;;;;26.8;20.7;;;;;;;11.03;75.92285;927.7715;;;;
2019/04/07 19:07:51;;;;;;;36.9;26.2;;;;;;;10.97;75.83105;927.7821;;;;
2019/04/07 19:11:52;;;;;;;23.1;18.7;;;;;;;10.92;75.19531;927.7833;;;;
2019/04/07 19:13:52;;;;;;;22.1;17.2;;;;;;;10.8;76.25977;927.8047;;;;
2019/04/07 19:17:23;;;;;;;20.8;16;;;;;;;10.7;75.90918;927.8805;;;;
2019/04/07 19:21:01;;;;;;;23.1;17.7;;;;;;;11.03;75.08984;927.856;;;;
2019/04/07 19:25:39;;;;;;;23.2;18.8;;;;;;;11.44;74.64551;927.8524;;;;
2019/04/07 19:27:33;;;;;;;23.8;19.2;;;;;;;11.48;74.87891;927.8567;;;;
2019/04/07 19:34:20;;;;;;;22.5;18.3;;;;;;;10.92;76.05078;927.8813;;;;
2019/04/07 19:37:24;;;;;;;22.2;18.2;;;;;;;11.16;75.54492;927.9352;;;;
2019/04/07 19:39:45;;;;;;;33.3;25.1;;;;;;;11.34;74.04297;928.0086;;;;
2019/04/07 19:50:10;;;;;;;20.5;17.5;;;;;;;11.26;73.69922;928.0341;;;;
2019/04/07 19:53:13;;;;;;;22.7;17.9;;;;;;;10.94;74.90137;928.0365;;;;
2019/04/07 19:54:57;;;;;;;22.5;18.4;;;;;;;11.4;74.35156;928.0144;;;;